Time;durP1;ratioP1;P1;durP2;ratioP2;P2;SDS_P1;SDS_P2;PMS_P1;PMS_P2;Temp;Humidity;BMP_temperature;BMP_pressure;BME280_temperature;BME280_humidity;BME280_pressure;Samples;Min_cycle;Max_cycle;Signal;HPM_P1;HPM_P2
2024/03/16 00:01:48;;;;;;;0.60;0.50;;;;;;;11.98;100.00;96206.56;5003867;28;20846;-71
2024/03/16 00:04:15;;;;;;;3.17;0.60;;;;;;;11.94;100.00;96204.47;5004746;28;20201;-71
2024/03/16 00:06:41;;;;;;;1.07;0.67;;;;;;;12.34;100.00;96200.25;5004438;28;20917;-71
2024/03/16 00:09:08;;;;;;;2.47;0.90;;;;;;;12.47;100.00;96202.19;5004010;28;20205;-71
2024/03/16 00:11:35;;;;;;;2.27;1.23;;;;;;;12.18;100.00;96207.59;5004583;28;20201;-69
2024/03/16 00:14:02;;;;;;;3.43;1.00;;;;;;;12.41;100.00;96209.06;5004769;28;20283;-71
2024/03/16 00:16:30;;;;;;;4.87;1.47;;;;;;;12.30;100.00;96204.28;5003926;28;20225;-71
2024/03/16 00:18:57;;;;;;;2.33;1.30;;;;;;;12.18;100.00;96202.31;5004314;28;20283;-71
2024/03/16 00:21:23;;;;;;;2.77;1.40;;;;;;;12.24;100.00;96207.69;5004226;28;20296;-70
2024/03/16 00:23:49;;;;;;;1.30;0.70;;;;;;;12.32;100.00;96204.91;5003873;28;20600;-71
2024/03/16 00:26:16;;;;;;;1.93;1.00;;;;;;;12.29;100.00;96205.28;5003041;28;20208;-69
2024/03/16 00:28:42;;;;;;;3.07;1.10;;;;;;;12.08;100.00;96200.97;5004066;28;20607;-71
2024/03/16 00:31:09;;;;;;;4.13;1.30;;;;;;;11.87;100.00;96208.88;5004016;28;20205;-70
2024/03/16 00:33:36;;;;;;;2.53;1.13;;;;;;;12.03;100.00;96213.91;5003939;28;20275;-71
2024/03/16 00:36:03;;;;;;;8.83;2.43;;;;;;;12.02;100.00;96207.03;5002591;28;20213;-71
2024/03/16 00:38:29;;;;;;;5.37;1.67;;;;;;;11.48;100.00;96203.09;5004126;28;20578;-69
2024/03/16 00:40:56;;;;;;;1.23;0.80;;;;;;;11.33;100.00;96204.06;5003954;28;20209;-71
2024/03/16 00:43:22;;;;;;;1.23;0.60;;;;;;;11.33;100.00;96201.44;5003742;28;20197;-71
2024/03/16 00:45:48;;;;;;;1.73;0.83;;;;;;;11.65;100.00;96205.34;5003106;28;20206;-70
2024/03/16 00:48:15;;;;;;;1.10;0.70;;;;;;;11.82;100.00;96195.41;5003686;28;20398;-71
2024/03/16 00:50:41;;;;;;;3.27;1.27;;;;;;;11.56;100.00;96195.09;5003130;28;20197;-70
2024/03/16 00:53:09;;;;;;;2.97;1.00;;;;;;;11.76;100.00;96212.81;5003222;28;20208;-71
2024/03/16 00:55:36;;;;;;;2.73;1.10;;;;;;;11.72;100.00;96205.44;5003915;28;20235;-71
2024/03/16 00:58:03;;;;;;;3.23;1.00;;;;;;;11.70;100.00;96204.81;5003293;28;20225;-71
2024/03/16 01:00:31;;;;;;;2.63;1.57;;;;;;;11.51;100.00;96197.47;5003434;28;20687;-69
2024/03/16 01:02:57;;;;;;;2.13;0.93;;;;;;;11.36;100.00;96199.25;5004156;28;20197;-70
2024/03/16 01:05:26;;;;;;;1.80;0.80;;;;;;;11.36;100.00;96199.25;5002865;28;20202;-71
2024/03/16 01:07:53;;;;;;;2.70;1.33;;;;;;;11.40;100.00;96208.44;5003853;28;20257;-69
2024/03/16 01:10:19;;;;;;;2.40;0.93;;;;;;;11.40;100.00;96205.00;5003957;28;20784;-68
2024/03/16 01:12:46;;;;;;;1.43;0.90;;;;;;;11.23;100.00;96201.72;5003098;28;20201;-71
2024/03/16 01:15:13;;;;;;;1.03;0.73;;;;;;;11.17;100.00;96212.16;5002604;28;20229;-71
2024/03/16 01:17:39;;;;;;;0.97;0.40;;;;;;;11.41;100.00;96210.06;5002932;28;20889;-71
2024/03/16 01:20:09;;;;;;;0.60;0.50;;;;;;;11.05;100.00;96206.53;5003479;28;20212;-71
2024/03/16 01:22:35;;;;;;;0.60;0.60;;;;;;;11.10;100.00;96208.63;5003381;28;20241;-68
2024/03/16 01:25:02;;;;;;;0.50;0.40;;;;;;;11.30;100.00;96205.28;5002185;28;20203;-70
2024/03/16 01:27:29;;;;;;;0.50;0.40;;;;;;;11.32;100.00;96205.91;5003376;28;20223;-69
2024/03/16 01:29:56;;;;;;;0.40;0.40;;;;;;;11.20;100.00;96210.00;5002828;28;20205;-71
2024/03/16 01:32:22;;;;;;;0.90;0.50;;;;;;;11.13;100.00;96203.78;5002529;28;20197;-69
2024/03/16 01:34:49;;;;;;;0.40;0.40;;;;;;;11.02;100.00;96208.69;5002835;28;20217;-71
2024/03/16 01:37:16;;;;;;;1.03;0.73;;;;;;;11.19;100.00;96211.00;5002019;28;20224;-71
2024/03/16 01:39:42;;;;;;;1.13;0.73;;;;;;;11.16;100.00;96203.44;5003052;28;20208;-68
2024/03/16 01:42:09;;;;;;;1.90;0.70;;;;;;;11.23;100.00;96209.63;5002674;28;20453;-68
2024/03/16 01:44:36;;;;;;;0.87;0.57;;;;;;;11.15;100.00;96214.16;5002614;28;20194;-71
2024/03/16 01:47:03;;;;;;;1.10;0.80;;;;;;;11.33;100.00;96204.91;5001580;28;20236;-70
2024/03/16 01:49:29;;;;;;;0.37;0.37;;;;;;;10.80;100.00;96211.41;5003096;28;20205;-69
2024/03/16 01:51:56;;;;;;;1.60;0.70;;;;;;;11.20;100.00;96209.16;5002386;28;20205;-71
2024/03/16 01:54:23;;;;;;;2.97;0.70;;;;;;;10.93;100.00;96216.88;5002262;28;20741;-70
2024/03/16 01:56:49;;;;;;;0.50;0.50;;;;;;;10.99;100.00;96211.69;5002125;28;20247;-71
2024/03/16 01:59:16;;;;;;;5.77;0.77;;;;;;;10.84;100.00;96202.13;5002296;28;20205;-69
2024/03/16 02:01:43;;;;;;;2.33;0.60;;;;;;;11.02;100.00;96201.63;5001790;28;20640;-69
2024/03/16 02:04:09;;;;;;;1.90;0.60;;;;;;;10.74;100.00;96202.38;5001883;28;20201;-70
2024/03/16 02:06:36;;;;;;;1.17;0.80;;;;;;;10.87;100.00;96202.59;5001926;28;20274;-70
2024/03/16 02:09:03;;;;;;;0.70;0.70;;;;;;;10.89;100.00;96207.69;5002044;28;20204;-71
2024/03/16 02:11:30;;;;;;;1.03;0.77;;;;;;;10.85;100.00;96206.41;5002503;28;20732;-71
2024/03/16 02:13:56;;;;;;;1.43;0.63;;;;;;;10.72;100.00;96203.56;5001948;28;20631;-71
2024/03/16 02:16:23;;;;;;;0.50;0.30;;;;;;;10.74;100.00;96201.56;5001297;28;20232;-69
2024/03/16 02:18:50;;;;;;;0.50;0.50;;;;;;;10.73;100.00;96211.28;5002170;28;20603;-71
2024/03/16 02:21:16;;;;;;;1.17;0.80;;;;;;;10.80;100.00;96214.84;5001950;28;20453;-69
2024/03/16 02:23:43;;;;;;;0.50;0.50;;;;;;;10.69;100.00;96206.53;5002349;28;20582;-71
2024/03/16 02:26:11;;;;;;;0.40;0.40;;;;;;;10.79;100.00;96210.56;5000488;28;20211;-71
2024/03/16 02:28:37;;;;;;;0.63;0.60;;;;;;;10.52;100.00;96205.06;5001903;28;20667;-71
2024/03/16 02:31:04;;;;;;;0.80;0.60;;;;;;;10.88;100.00;96203.41;5002665;28;20266;-71
2024/03/16 02:33:31;;;;;;;0.53;0.50;;;;;;;10.81;100.00;96210.41;5002914;28;20201;-70
2024/03/16 02:35:58;;;;;;;0.50;0.50;;;;;;;10.74;100.00;96217.38;5000650;28;20710;-71
2024/03/16 02:38:24;;;;;;;0.47;0.47;;;;;;;10.63;100.00;96209.91;5001540;28;20217;-71
2024/03/16 02:40:52;;;;;;;1.23;0.60;;;;;;;10.37;100.00;96218.19;5002186;28;20205;-70
2024/03/16 02:43:18;;;;;;;0.93;0.50;;;;;;;10.58;100.00;96222.81;5001733;28;20292;-69
2024/03/16 02:45:45;;;;;;;0.50;0.50;;;;;;;10.56;100.00;96219.50;5001043;28;20247;-68
2024/03/16 02:48:11;;;;;;;0.40;0.40;;;;;;;10.58;100.00;96230.69;5002067;28;20233;-70
2024/03/16 02:50:37;;;;;;;0.53;0.50;;;;;;;10.68;100.00;96228.63;5001140;28;20204;-69
2024/03/16 02:53:04;;;;;;;2.57;1.07;;;;;;;10.56;100.00;96222.13;5001528;28;20201;-68
2024/03/16 02:55:31;;;;;;;0.50;0.50;;;;;;;10.62;100.00;96226.72;5001085;28;20760;-70
2024/03/16 02:57:57;;;;;;;0.40;0.40;;;;;;;10.60;100.00;96223.41;5001746;28;20469;-70
2024/03/16 03:00:26;;;;;;;0.50;0.50;;;;;;;10.65;100.00;96228.97;5001311;28;20209;-70
2024/03/16 03:02:53;;;;;;;1.17;0.50;;;;;;;10.59;100.00;96229.69;5002154;28;20205;-69
2024/03/16 03:05:22;;;;;;;0.40;0.40;;;;;;;10.54;100.00;96232.06;5001230;28;20205;-69
2024/03/16 03:07:49;;;;;;;0.30;0.30;;;;;;;10.55;100.00;96216.06;5001139;28;20232;-71
2024/03/16 03:10:15;;;;;;;0.63;0.43;;;;;;;10.24;100.00;96209.22;5001411;28;20316;-69
2024/03/16 03:12:42;;;;;;;2.73;0.40;;;;;;;10.18;100.00;96209.09;5001905;28;20205;-70
2024/03/16 03:15:11;;;;;;;0.63;0.50;;;;;;;10.62;100.00;96205.63;5000229;28;20233;-69
2024/03/16 03:17:38;;;;;;;0.50;0.50;;;;;;;10.52;100.00;96218.22;5005326;28;20247;-70
2024/03/16 03:20:08;;;;;;;0.40;0.40;;;;;;;10.14;100.00;96203.34;5005661;28;20212;-71
2024/03/16 03:22:35;;;;;;;0.60;0.40;;;;;;;10.16;100.00;96198.75;5006163;28;20201;-70
2024/03/16 03:25:02;;;;;;;0.40;0.40;;;;;;;10.29;100.00;96200.81;5004350;28;20358;-69
2024/03/16 03:27:28;;;;;;;0.60;0.37;;;;;;;10.15;100.00;96197.09;5004971;28;20469;-69
2024/03/16 03:29:55;;;;;;;0.40;0.40;;;;;;;10.07;100.00;96197.16;5004718;28;20697;-71
2024/03/16 03:32:22;;;;;;;0.40;0.40;;;;;;;9.90;100.00;96195.59;5004993;28;20201;-70
2024/03/16 03:34:48;;;;;;;0.60;0.43;;;;;;;10.08;100.00;96188.28;5005743;28;20194;-71
2024/03/16 03:37:15;;;;;;;0.40;0.40;;;;;;;9.79;100.00;96198.63;5004382;28;20229;-71
2024/03/16 03:39:42;;;;;;;0.50;0.50;;;;;;;10.05;100.00;96196.50;5004799;28;20197;-70
2024/03/16 03:42:10;;;;;;;0.63;0.50;;;;;;;9.97;100.00;96193.94;5005807;28;20228;-68
2024/03/16 03:44:38;;;;;;;0.67;0.50;;;;;;;9.67;100.00;96207.06;5005607;28;20248;-69
2024/03/16 03:47:07;;;;;;;0.87;0.50;;;;;;;9.90;100.00;96200.88;5003969;28;20233;-71
2024/03/16 03:49:35;;;;;;;2.23;0.47;;;;;;;9.82;100.00;96205.34;5005884;28;20201;-70
2024/03/16 03:52:02;;;;;;;0.77;0.57;;;;;;;9.68;100.00;96216.59;5005158;28;20212;-70
2024/03/16 03:54:29;;;;;;;0.93;0.50;;;;;;;9.71;100.00;96208.34;5004612;28;20500;-71
2024/03/16 03:56:55;;;;;;;0.50;0.47;;;;;;;9.85;100.00;96212.88;5004374;28;20221;-71
2024/03/16 03:59:22;;;;;;;0.60;0.60;;;;;;;9.92;100.00;96206.75;5004446;28;20213;-71
2024/03/16 04:01:49;;;;;;;3.50;0.50;;;;;;;9.97;100.00;96216.81;5004012;28;20722;-68
2024/03/16 04:04:16;;;;;;;0.40;0.40;;;;;;;9.90;100.00;96232.44;5004810;28;20204;-71
2024/03/16 04:06:44;;;;;;;0.40;0.40;;;;;;;10.05;100.00;96230.72;5004022;28;20353;-71
2024/03/16 04:09:11;;;;;;;0.93;0.60;;;;;;;9.86;100.00;96225.06;5004862;28;20452;-70
2024/03/16 04:11:38;;;;;;;2.23;0.50;;;;;;;10.09;100.00;96229.38;5004485;28;20553;-69
2024/03/16 04:14:05;;;;;;;0.47;0.40;;;;;;;9.82;100.00;96229.84;5004601;28;20213;-69
2024/03/16 04:16:31;;;;;;;0.30;0.30;;;;;;;10.01;100.00;96226.81;5003206;28;20223;-69
2024/03/16 04:18:58;;;;;;;0.57;0.40;;;;;;;10.08;100.00;96224.31;5004511;28;20224;-70
2024/03/16 04:21:24;;;;;;;0.37;0.37;;;;;;;9.90;100.00;96229.81;5004571;28;20201;-69
2024/03/16 04:23:51;;;;;;;0.30;0.30;;;;;;;9.90;100.00;96221.09;5004423;28;20197;-71
2024/03/16 04:26:18;;;;;;;0.50;0.50;;;;;;;10.00;100.00;96227.00;5002881;28;20232;-71
2024/03/16 04:28:44;;;;;;;0.60;0.47;;;;;;;9.87;100.00;96227.50;5003836;28;20685;-71
2024/03/16 04:31:11;;;;;;;0.50;0.50;;;;;;;10.08;100.00;96227.78;5004091;28;20204;-69
2024/03/16 04:33:37;;;;;;;0.60;0.60;;;;;;;10.14;100.00;96219.16;5004306;28;20204;-71
2024/03/16 04:36:04;;;;;;;0.50;0.50;;;;;;;10.22;100.00;96221.75;5003440;28;20589;-68
2024/03/16 04:38:31;;;;;;;1.23;0.60;;;;;;;10.31;100.00;96225.97;5003854;28;20822;-71
2024/03/16 04:40:57;;;;;;;0.53;0.50;;;;;;;10.14;100.00;96229.69;5003827;28;20209;-71
2024/03/16 04:43:25;;;;;;;0.40;0.40;;;;;;;10.12;100.00;96236.97;5003985;28;20212;-71
2024/03/16 04:45:51;;;;;;;0.60;0.60;;;;;;;10.02;100.00;96236.34;5003307;28;20279;-71
2024/03/16 04:48:18;;;;;;;0.60;0.40;;;;;;;10.06;100.00;96235.00;5003516;28;20239;-71
2024/03/16 04:50:44;;;;;;;0.50;0.40;;;;;;;10.04;100.00;96234.38;5003596;28;20255;-69
2024/03/16 04:53:12;;;;;;;0.60;0.60;;;;;;;10.39;100.00;96228.53;5003676;28;20205;-70
2024/03/16 04:55:39;;;;;;;0.80;0.80;;;;;;;10.54;100.00;96230.22;5002967;28;20288;-71
2024/03/16 04:58:07;;;;;;;0.80;0.70;;;;;;;10.75;100.00;96233.00;5004016;28;20225;-69
2024/03/16 05:00:34;;;;;;;0.90;0.50;;;;;;;10.69;100.00;96230.25;5004002;28;20705;-71
2024/03/16 05:03:01;;;;;;;1.10;0.60;;;;;;;10.73;100.00;96229.75;5003453;28;20224;-69
2024/03/16 05:05:28;;;;;;;0.53;0.40;;;;;;;10.52;100.00;96228.75;5002795;28;20725;-71
2024/03/16 05:07:54;;;;;;;0.40;0.40;;;;;;;10.51;100.00;96229.75;5004093;28;20217;-69
2024/03/16 05:10:21;;;;;;;0.40;0.40;;;;;;;10.35;100.00;96233.34;5003882;28;20581;-70
2024/03/16 05:12:47;;;;;;;0.70;0.57;;;;;;;10.48;100.00;96235.38;5003534;28;20205;-71
2024/03/16 05:15:14;;;;;;;0.50;0.50;;;;;;;10.57;100.00;96232.50;5003938;28;20201;-71
2024/03/16 05:17:41;;;;;;;0.53;0.50;;;;;;;10.47;100.00;96226.66;5003179;28;20217;-68
2024/03/16 05:20:10;;;;;;;0.50;0.50;;;;;;;10.39;100.00;96233.81;5003486;28;20205;-71
2024/03/16 05:22:36;;;;;;;0.67;0.50;;;;;;;10.27;100.00;96235.19;5004187;28;20717;-69
2024/03/16 05:25:04;;;;;;;0.93;0.60;;;;;;;10.37;100.00;96238.41;5002475;28;20229;-71
2024/03/16 05:27:31;;;;;;;2.17;0.60;;;;;;;10.13;100.00;96240.41;5002696;28;20221;-69
2024/03/16 05:29:58;;;;;;;0.70;0.50;;;;;;;10.37;100.00;96252.44;5002965;28;20671;-70
2024/03/16 05:32:25;;;;;;;0.50;0.50;;;;;;;10.47;100.00;96241.66;5002937;28;20403;-70
2024/03/16 05:34:51;;;;;;;1.00;0.60;;;;;;;10.35;100.00;96243.06;5002467;28;21097;-71
2024/03/16 05:37:18;;;;;;;2.40;0.70;;;;;;;10.41;100.00;96242.34;5001610;28;20229;-71
2024/03/16 05:39:45;;;;;;;0.80;0.50;;;;;;;10.51;100.00;96249.03;5003747;28;20634;-71
2024/03/16 05:42:12;;;;;;;0.50;0.50;;;;;;;10.18;100.00;96245.97;5003236;28;20212;-71
2024/03/16 05:44:38;;;;;;;0.80;0.60;;;;;;;10.39;100.00;96244.34;5003258;28;20275;-69
2024/03/16 05:47:06;;;;;;;0.70;0.70;;;;;;;10.42;100.00;96244.81;5002332;28;20233;-68
2024/03/16 05:49:33;;;;;;;2.70;1.00;;;;;;;10.30;100.00;96250.66;5003596;28;20262;-71
2024/03/16 05:52:00;;;;;;;0.67;0.60;;;;;;;10.23;100.00;96260.25;5002773;28;20209;-71
2024/03/16 05:54:31;;;;;;;2.10;0.97;;;;;;;10.25;100.00;96260.91;5003205;28;20206;-69
2024/03/16 05:56:57;;;;;;;0.60;0.60;;;;;;;10.12;100.00;96263.28;5003393;28;20245;-68
2024/03/16 05:59:24;;;;;;;0.90;0.60;;;;;;;10.20;100.00;96260.59;5003232;28;20586;-71
2024/03/16 06:01:51;;;;;;;0.40;0.40;;;;;;;10.26;100.00;96259.91;5002555;28;20205;-70
2024/03/16 06:04:19;;;;;;;2.10;0.53;;;;;;;10.56;100.00;96261.66;5002797;28;20209;-69
2024/03/16 06:06:46;;;;;;;0.50;0.50;;;;;;;10.58;100.00;96259.69;5002585;28;21032;-69
2024/03/16 06:09:13;;;;;;;1.57;0.80;;;;;;;10.25;100.00;96266.16;5002605;28;20209;-71
2024/03/16 06:11:40;;;;;;;2.13;0.67;;;;;;;10.43;100.00;96267.50;5002537;28;20213;-71
2024/03/16 06:14:09;;;;;;;0.50;0.50;;;;;;;10.29;100.00;96264.00;5002956;28;20209;-70
2024/03/16 06:16:37;;;;;;;0.80;0.70;;;;;;;10.68;100.00;96270.78;5002186;28;20343;-71
2024/03/16 06:19:03;;;;;;;0.50;0.50;;;;;;;10.53;100.00;96275.19;5002838;28;20216;-70
2024/03/16 06:21:31;;;;;;;0.90;0.60;;;;;;;10.72;100.00;96280.81;5002603;28;20205;-70
2024/03/16 06:23:57;;;;;;;0.50;0.50;;;;;;;10.73;100.00;96278.97;5003016;28;20354;-71
2024/03/16 06:26:24;;;;;;;1.33;0.80;;;;;;;10.65;100.00;96293.03;5001262;28;20268;-69
2024/03/16 06:28:54;;;;;;;0.77;0.60;;;;;;;10.71;100.00;96296.81;5002980;28;20304;-71
2024/03/16 06:31:30;;;;;;;0.87;0.70;;;;;;;10.75;100.00;96303.34;5003393;28;20209;-69
2024/03/16 06:33:57;;;;;;;2.80;1.63;;;;;;;10.90;100.00;96318.22;5005465;28;20211;-71
2024/03/16 06:36:24;;;;;;;1.43;0.93;;;;;;;10.77;100.00;96309.25;5002068;28;20232;-71
2024/03/16 06:38:50;;;;;;;1.00;0.83;;;;;;;10.78;100.00;96322.28;5001888;28;20688;-69
2024/03/16 06:41:17;;;;;;;1.20;0.83;;;;;;;10.83;100.00;96321.75;5002705;28;20201;-70
2024/03/16 06:43:44;;;;;;;0.87;0.67;;;;;;;10.69;100.00;96319.88;5001932;28;20460;-70
2024/03/16 06:46:10;;;;;;;1.53;0.70;;;;;;;10.55;100.00;96324.09;5001431;28;20224;-71
2024/03/16 06:48:37;;;;;;;1.37;1.00;;;;;;;10.74;100.00;96328.88;5001799;28;20292;-70
2024/03/16 06:51:04;;;;;;;0.97;0.80;;;;;;;10.88;100.00;96329.94;5002148;28;20228;-70
2024/03/16 06:53:30;;;;;;;1.13;0.70;;;;;;;11.08;100.00;96329.28;5002136;28;20217;-71
2024/03/16 06:55:57;;;;;;;1.43;0.90;;;;;;;11.14;100.00;96339.13;5001287;28;20586;-71
2024/03/16 06:58:24;;;;;;;0.70;0.60;;;;;;;11.22;100.00;96347.78;5002375;28;20636;-70
2024/03/16 07:00:51;;;;;;;1.30;0.80;;;;;;;10.94;100.00;96337.97;5002496;28;20209;-69
2024/03/16 07:03:19;;;;;;;1.00;0.70;;;;;;;11.05;100.00;96338.38;5001395;28;20209;-71
2024/03/16 07:05:45;;;;;;;0.97;0.60;;;;;;;10.95;100.00;96345.69;5000672;28;20296;-71
2024/03/16 07:08:15;;;;;;;1.60;0.70;;;;;;;10.67;100.00;96353.50;5002333;28;20229;-70
2024/03/16 07:10:43;;;;;;;1.23;0.80;;;;;;;10.85;100.00;96360.13;5002600;28;20205;-68
2024/03/16 07:13:09;;;;;;;1.20;0.60;;;;;;;10.87;100.00;96366.03;5002315;28;20205;-69
2024/03/16 07:15:36;;;;;;;1.53;0.90;;;;;;;11.02;100.00;96365.09;5001361;28;20197;-71
2024/03/16 07:18:03;;;;;;;1.30;0.60;;;;;;;11.03;100.00;96371.19;5001728;28;20235;-71
2024/03/16 07:20:30;;;;;;;0.50;0.50;;;;;;;10.69;100.00;96375.22;5002224;28;20296;-70
2024/03/16 07:22:56;;;;;;;0.73;0.50;;;;;;;10.73;100.00;96381.78;5001524;28;20246;-70
2024/03/16 07:25:23;;;;;;;3.00;0.90;;;;;;;10.93;100.00;96381.13;5001511;28;20240;-71
2024/03/16 07:27:51;;;;;;;1.13;0.73;;;;;;;10.90;100.00;96383.31;5000975;28;20228;-70
2024/03/16 07:30:18;;;;;;;1.13;0.80;;;;;;;11.07;100.00;96391.75;5002443;28;20201;-70
2024/03/16 07:32:46;;;;;;;0.80;0.70;;;;;;;11.00;100.00;96393.44;5001960;28;20231;-68
2024/03/16 07:35:13;;;;;;;8.77;1.57;;;;;;;10.99;100.00;96389.16;5001537;28;20209;-70
2024/03/16 07:37:39;;;;;;;1.13;0.80;;;;;;;11.10;100.00;96393.22;5000258;28;20700;-70
2024/03/16 07:40:13;;;;;;;1.03;0.73;;;;;;;11.24;100.00;96395.91;5001350;28;20201;-69
2024/03/16 07:42:40;;;;;;;0.60;0.60;;;;;;;11.32;100.00;96392.38;5002534;28;20866;-71
2024/03/16 07:45:07;;;;;;;1.10;0.90;;;;;;;11.22;100.00;96400.53;5001496;28;20216;-71
2024/03/16 07:47:34;;;;;;;1.13;1.03;;;;;;;11.43;100.00;96392.78;5001056;28;20722;-69
2024/03/16 07:50:02;;;;;;;0.77;0.70;;;;;;;11.41;100.00;96401.88;5001639;28;20202;-70
2024/03/16 07:52:28;;;;;;;7.10;1.63;;;;;;;11.46;100.00;96391.63;5001414;28;20209;-70
2024/03/16 07:54:55;;;;;;;6.10;1.87;;;;;;;11.77;100.00;96388.69;5001562;28;20570;-70
2024/03/16 07:57:22;;;;;;;6.73;1.60;;;;;;;11.71;100.00;96404.41;5001267;28;20228;-71
2024/03/16 07:59:49;;;;;;;6.37;2.03;;;;;;;11.63;100.00;96396.56;5000725;28;20311;-70
2024/03/16 08:02:16;;;;;;;11.20;2.93;;;;;;;11.61;100.00;96403.88;5003013;28;20214;-69
2024/03/16 08:04:43;;;;;;;5.97;2.10;;;;;;;11.74;100.00;96409.34;5004952;28;20205;-70
2024/03/16 08:07:09;;;;;;;3.03;1.10;;;;;;;11.42;100.00;96401.69;5003920;28;20292;-71
2024/03/16 08:09:36;;;;;;;1.63;1.20;;;;;;;11.71;100.00;96405.25;5004898;28;20205;-70
2024/03/16 08:12:02;;;;;;;1.57;1.00;;;;;;;11.66;100.00;96402.31;5006087;28;20225;-71
2024/03/16 08:14:34;;;;;;;3.20;1.03;;;;;;;11.95;100.00;96406.81;5004315;28;20212;-70
2024/03/16 08:17:01;;;;;;;3.30;0.80;;;;;;;11.61;100.00;96403.88;5005388;28;20229;-71
2024/03/16 08:19:28;;;;;;;2.63;1.30;;;;;;;12.02;100.00;96408.56;5004591;28;20205;-70
2024/03/16 08:21:54;;;;;;;1.30;0.97;;;;;;;12.09;100.00;96404.16;5004877;28;20604;-69
2024/03/16 08:24:21;;;;;;;2.23;1.17;;;;;;;12.36;100.00;96407.00;5004627;28;20217;-70
2024/03/16 08:26:47;;;;;;;2.53;1.00;;;;;;;12.49;100.00;96401.88;5004025;28;20228;-69
2024/03/16 08:29:14;;;;;;;1.33;0.77;;;;;;;12.56;100.00;96408.06;5004776;28;20205;-70
2024/03/16 08:31:41;;;;;;;0.90;0.67;;;;;;;12.68;100.00;96405.75;5004281;28;20209;-70
2024/03/16 08:34:09;;;;;;;2.93;1.10;;;;;;;12.87;100.00;96400.75;5004173;28;20209;-70
2024/03/16 08:36:37;;;;;;;1.37;1.13;;;;;;;12.82;100.00;96403.91;5004128;28;20249;-69
2024/03/16 08:39:04;;;;;;;1.90;0.73;;;;;;;13.06;100.00;96415.97;5004684;28;20755;-71
2024/03/16 08:41:31;;;;;;;1.50;0.90;;;;;;;12.83;100.00;96415.31;5005105;28;20267;-70
2024/03/16 08:43:58;;;;;;;2.33;0.90;;;;;;;12.98;100.00;96416.09;5004160;28;20209;-70
2024/03/16 08:46:24;;;;;;;7.90;1.53;;;;;;;12.92;100.00;96414.22;5002688;28;20229;-71
2024/03/16 08:48:51;;;;;;;4.07;1.10;;;;;;;12.91;100.00;96410.75;5004085;28;20206;-70
2024/03/16 08:51:17;;;;;;;3.17;1.03;;;;;;;13.23;100.00;96414.75;5004219;28;20747;-69
2024/03/16 08:53:44;;;;;;;1.67;0.90;;;;;;;13.40;100.00;96415.13;5004101;28;20208;-71
2024/03/16 08:56:12;;;;;;;2.67;0.87;;;;;;;13.44;100.00;96411.09;5003371;28;20201;-70
2024/03/16 08:58:39;;;;;;;2.17;1.07;;;;;;;13.29;100.00;96408.69;5003548;28;21482;-71
2024/03/16 09:01:06;;;;;;;2.77;0.77;;;;;;;13.24;100.00;96411.06;5003218;28;20209;-69
2024/03/16 09:03:33;;;;;;;4.10;0.90;;;;;;;13.10;100.00;96414.63;5003164;28;20209;-70
2024/03/16 09:06:01;;;;;;;2.27;0.77;;;;;;;12.87;100.00;96432.47;5002985;28;20205;-69
2024/03/16 09:08:28;;;;;;;1.10;0.80;;;;;;;12.83;100.00;96412.69;5004170;28;20256;-69
2024/03/16 09:10:55;;;;;;;2.00;0.87;;;;;;;12.94;100.00;96412.19;5004158;28;20208;-71
2024/03/16 09:13:21;;;;;;;1.53;0.70;;;;;;;12.78;100.00;96407.94;5003603;28;20308;-70
2024/03/16 09:15:48;;;;;;;1.00;0.67;;;;;;;12.82;100.00;96414.47;5002819;28;20204;-71
2024/03/16 09:18:15;;;;;;;2.17;0.70;;;;;;;12.86;100.00;96409.69;5003279;28;20225;-71
2024/03/16 09:20:43;;;;;;;2.30;0.60;;;;;;;13.03;100.00;96405.78;5004304;28;20559;-70
2024/03/16 09:23:10;;;;;;;1.00;0.60;;;;;;;13.01;100.00;96413.09;5004412;28;20236;-68
2024/03/16 09:25:36;;;;;;;1.53;0.87;;;;;;;12.98;100.00;96409.00;5002926;28;20228;-71
2024/03/16 09:28:03;;;;;;;3.13;0.90;;;;;;;13.08;100.00;96408.69;5003115;28;20311;-69
2024/03/16 09:30:30;;;;;;;1.47;0.80;;;;;;;13.19;100.00;96416.16;5003741;28;20209;-69
2024/03/16 09:32:58;;;;;;;2.43;0.80;;;;;;;13.21;100.00;96408.81;5003462;28;20209;-70
2024/03/16 09:35:26;;;;;;;1.80;0.73;;;;;;;13.17;100.00;96407.56;5003531;28;20201;-71
2024/03/16 09:37:52;;;;;;;3.60;0.80;;;;;;;13.58;100.00;96404.06;5002541;28;20276;-70
2024/03/16 09:40:19;;;;;;;0.80;0.77;;;;;;;13.88;100.00;96413.50;5002228;28;20204;-71
2024/03/16 09:42:46;;;;;;;0.80;0.57;;;;;;;13.81;100.00;96421.38;5002759;28;20938;-71
2024/03/16 09:45:17;;;;;;;0.97;0.67;;;;;;;13.69;100.00;96414.97;5002704;28;20231;-71
2024/03/16 09:47:43;;;;;;;2.33;1.10;;;;;;;13.92;100.00;96404.94;5002606;28;20233;-71
2024/03/16 09:50:10;;;;;;;1.43;0.60;;;;;;;14.18;100.00;96427.19;5003156;28;20202;-70
2024/03/16 09:52:40;;;;;;;2.17;0.50;;;;;;;13.93;100.00;96421.69;5003417;28;20205;-71
2024/03/16 09:55:09;;;;;;;0.73;0.50;;;;;;;13.78;100.00;96426.25;5004095;28;20328;-69
2024/03/16 09:57:36;;;;;;;0.83;0.53;;;;;;;13.43;100.00;96427.97;5002171;28;20229;-70
2024/03/16 10:00:05;;;;;;;0.60;0.47;;;;;;;13.64;100.00;96433.25;5003145;28;20201;-70
2024/03/16 10:02:31;;;;;;;0.90;0.40;;;;;;;13.72;100.00;96435.78;5003737;28;21080;-70
2024/03/16 10:04:58;;;;;;;2.20;0.83;;;;;;;14.01;100.00;96427.63;5002924;28;20299;-71
2024/03/16 10:07:25;;;;;;;0.53;0.40;;;;;;;14.17;100.00;96456.53;5001727;28;20614;-71
2024/03/16 10:09:52;;;;;;;0.50;0.47;;;;;;;14.12;100.00;96422.66;5002524;28;20209;-71
2024/03/16 10:12:19;;;;;;;1.87;0.73;;;;;;;14.26;100.00;96418.25;5002130;28;20671;-70
2024/03/16 10:14:47;;;;;;;2.47;1.00;;;;;;;13.88;100.00;96419.59;5002518;28;20201;-71
2024/03/16 10:17:13;;;;;;;1.73;0.60;;;;;;;14.12;100.00;96420.00;5001966;28;20232;-69
2024/03/16 10:19:40;;;;;;;0.55;0.50;;;;;;;14.04;100.00;96419.31;5002772;28;20201;-69
2024/03/16 10:22:07;;;;;;;4.05;0.47;;;;;;;14.26;100.00;96426.22;5002519;28;20209;-70
2024/03/16 10:24:33;;;;;;;2.70;0.63;;;;;;;14.22;100.00;96423.13;5002289;28;20205;-70
2024/03/16 10:27:00;;;;;;;0.83;0.60;;;;;;;14.43;100.00;96422.22;5001385;28;20620;-70
2024/03/16 10:29:26;;;;;;;0.73;0.53;;;;;;;13.93;100.00;96421.69;5002108;28;20202;-71
2024/03/16 10:31:54;;;;;;;0.73;0.67;;;;;;;13.99;100.00;96427.84;5001922;28;20575;-70
2024/03/16 10:34:22;;;;;;;2.60;0.90;;;;;;;14.41;100.00;96422.44;5002566;28;20288;-70
2024/03/16 10:36:49;;;;;;;0.50;0.40;;;;;;;14.36;100.00;96414.25;5001709;28;20220;-71
2024/03/16 10:39:16;;;;;;;0.97;0.67;;;;;;;14.18;100.00;96424.53;5001796;28;20574;-70
2024/03/16 10:41:43;;;;;;;0.40;0.40;;;;;;;14.11;100.00;96420.19;5002431;28;20278;-70
2024/03/16 10:44:10;;;;;;;0.87;0.53;;;;;;;14.19;100.00;96428.00;5001873;28;20758;-70
2024/03/16 10:46:38;;;;;;;1.13;0.60;;;;;;;14.36;100.00;96422.19;5000768;28;20225;-71
2024/03/16 10:49:05;;;;;;;2.93;0.50;;;;;;;14.42;100.00;96424.06;5002651;28;20205;-70
2024/03/16 10:51:32;;;;;;;0.50;0.50;;;;;;;14.07;100.00;96435.63;5001778;28;20209;-69
2024/03/16 10:53:58;;;;;;;0.50;0.40;;;;;;;14.31;100.00;96442.38;5001571;28;20280;-71
2024/03/16 10:56:30;;;;;;;1.30;0.77;;;;;;;14.35;100.00;96451.56;5001600;28;20205;-69
2024/03/16 10:58:56;;;;;;;0.60;0.60;;;;;;;14.23;100.00;96474.28;5003538;28;20328;-70
2024/03/16 11:01:23;;;;;;;0.32;0.32;;;;;;;13.71;100.00;96479.16;5002119;28;20216;-70
2024/03/16 11:03:52;;;;;;;0.30;0.30;;;;;;;13.45;100.00;96483.38;5001997;28;20690;-70
2024/03/16 11:06:21;;;;;;;0.30;0.30;;;;;;;12.59;100.00;96488.81;5001376;28;20201;-70
2024/03/16 11:08:48;;;;;;;0.40;0.30;;;;;;;11.98;100.00;96485.69;5002141;28;20221;-69
2024/03/16 11:11:16;;;;;;;0.43;0.43;;;;;;;12.10;100.00;96500.09;5002485;28;20619;-69
2024/03/16 11:14:04;;;;;;;0.40;0.40;;;;;;;12.26;100.00;96496.28;5002187;28;20258;-69
2024/03/16 11:16:33;;;;;;;0.90;0.50;;;;;;;12.16;100.00;96487.81;5003381;28;20260;-69
2024/03/16 11:18:59;;;;;;;1.10;0.30;;;;;;;12.22;100.00;96481.81;5002129;28;20209;-69
2024/03/16 11:21:26;;;;;;;1.27;0.57;;;;;;;12.39;100.00;96475.34;5001132;28;20205;-69
2024/03/16 11:23:52;;;;;;;1.13;0.60;;;;;;;12.30;100.00;96471.13;5017771;28;20808;-69
2024/03/16 11:26:40;;;;;;;0.83;0.53;;;;;;;12.67;100.00;96471.03;5000868;28;20209;-69